Time;durP1;ratioP1;P1;durP2;ratioP2;P2;SDS_P1;SDS_P2;PMS_P1;PMS_P2;Temp;Humidity;BMP_temperature;BMP_pressure;BME280_temperature;BME280_humidity;BME280_pressure;Samples;Min_cycle;Max_cycle;Signal;HPM_P1;HPM_P2
2022/05/13 00:01:55;;;;;;;8.37;7.53;;;16.50;99.90;;;;;;6244477;23;20419;-71
2022/05/13 00:04:23;;;;;;;8.13;7.30;;;16.50;99.90;;;;;;6243656;23;20466;-70
2022/05/13 00:06:50;;;;;;;10.00;7.37;;;16.50;99.90;;;;;;6244361;23;20788;-71
2022/05/13 00:09:17;;;;;;;8.90;8.00;;;16.50;99.90;;;;;;6242721;22;20442;-71
2022/05/13 00:11:44;;;;;;;7.70;6.93;;;16.50;99.90;;;;;;6244280;23;20423;-71
2022/05/13 00:14:11;;;;;;;8.63;6.83;;;16.40;99.90;;;;;;6243538;23;20427;-71
2022/05/13 00:16:37;;;;;;;10.73;7.47;;;16.40;99.90;;;;;;6243998;23;20752;-70
2022/05/13 00:19:05;;;;;;;8.37;7.60;;;16.50;99.90;;;;;;6243572;22;21021;-71
2022/05/13 00:21:33;;;;;;;7.97;7.23;;;16.40;99.90;;;;;;6243767;23;20432;-71
2022/05/13 00:24:00;;;;;;;7.10;6.50;;;16.40;99.90;;;;;;6244148;23;20458;-71
2022/05/13 00:26:27;;;;;;;7.80;7.10;;;16.40;99.90;;;;;;6243589;23;20415;-71
2022/05/13 00:28:54;;;;;;;8.90;7.73;;;16.40;99.90;;;;;;6243324;22;20439;-71
2022/05/13 00:31:20;;;;;;;12.53;8.73;;;16.40;99.90;;;;;;6243679;23;20419;-71
2022/05/13 00:33:47;;;;;;;9.23;7.93;;;16.40;99.90;;;;;;6243803;23;20849;-71
2022/05/13 00:36:14;;;;;;;8.20;7.50;;;16.30;99.90;;;;;;6244069;23;20427;-71
2022/05/13 00:38:42;;;;;;;9.30;7.27;;;16.30;99.90;;;;;;6242730;22;20450;-71
2022/05/13 00:41:08;;;;;;;9.13;7.50;;;16.30;99.90;;;;;;6244150;23;20422;-71
2022/05/13 00:43:45;;;;;;;8.93;7.63;;;16.30;99.90;;;;;;6243398;23;20439;-71
2022/05/13 00:46:12;;;;;;;8.53;7.70;;;16.30;99.90;;;;;;6243873;23;20461;-71
2022/05/13 00:48:39;;;;;;;8.93;7.77;;;16.40;99.90;;;;;;6242824;22;20466;-72
2022/05/13 00:51:06;;;;;;;11.50;7.33;;;16.40;99.90;;;;;;6243697;23;20419;-71
2022/05/13 00:53:35;;;;;;;8.60;7.70;;;16.40;99.90;;;;;;6243507;23;20427;-71
2022/05/13 00:56:03;;;;;;;10.90;8.60;;;16.40;99.90;;;;;;6243851;23;20741;-71
2022/05/13 00:58:32;;;;;;;8.10;7.40;;;16.40;99.90;;;;;;6241402;22;20769;-71
2022/05/13 01:00:59;;;;;;;8.13;7.43;;;16.40;99.90;;;;;;6243229;23;20423;-71
2022/05/13 01:03:26;;;;;;;9.03;7.70;;;16.40;99.90;;;;;;6243652;23;20780;-71
2022/05/13 01:05:58;;;;;;;8.37;7.57;;;16.40;99.90;;;;;;6243241;23;20805;-71
2022/05/13 01:08:26;;;;;;;8.77;7.90;;;16.40;99.90;;;;;;6242286;22;20944;-71
2022/05/13 01:10:55;;;;;;;8.40;7.60;;;16.40;99.90;;;;;;6243141;23;20751;-71
2022/05/13 01:13:28;;;;;;;9.27;7.40;;;16.40;99.90;;;;;;6243326;23;20758;-71
2022/05/13 01:15:56;;;;;;;10.77;8.50;;;16.40;99.90;;;;;;6253234;23;20388;-71
2022/05/13 01:18:31;;;;;;;7.70;7.00;;;16.40;99.90;;;;;;6242137;22;20446;-71
2022/05/13 01:20:59;;;;;;;8.43;7.63;;;16.40;99.90;;;;;;6243506;23;20453;-71
2022/05/13 01:23:30;;;;;;;8.90;8.10;;;16.30;99.90;;;;;;6242861;23;20443;-71
2022/05/13 01:25:59;;;;;;;9.10;7.10;;;16.30;99.90;;;;;;6243555;23;20407;-71
2022/05/13 01:28:29;;;;;;;8.77;7.47;;;16.30;99.90;;;;;;6241921;22;20969;-71
2022/05/13 01:30:58;;;;;;;7.87;7.17;;;16.40;99.90;;;;;;6243724;23;20823;-71
2022/05/13 01:33:25;;;;;;;12.70;8.47;;;16.40;99.90;;;;;;6242935;23;20770;-71
2022/05/13 01:35:55;;;;;;;8.83;8.03;;;16.40;99.90;;;;;;6243121;23;20905;-71
2022/05/13 01:38:24;;;;;;;8.50;7.77;;;16.40;99.90;;;;;;6243257;22;21046;-71
2022/05/13 01:40:52;;;;;;;9.50;8.47;;;16.40;99.90;;;;;;6243158;23;20419;-71
2022/05/13 01:43:19;;;;;;;8.90;8.00;;;16.40;99.90;;;;;;6243032;23;21002;-71
2022/05/13 01:45:46;;;;;;;7.67;6.97;;;16.30;99.90;;;;;;6243059;23;20419;-71
2022/05/13 01:48:13;;;;;;;9.50;8.60;;;16.30;99.90;;;;;;6241957;22;20446;-71
2022/05/13 01:50:40;;;;;;;8.40;7.70;;;16.30;99.90;;;;;;6242649;23;20419;-71
2022/05/13 01:53:09;;;;;;;9.20;8.30;;;16.30;99.90;;;;;;6243134;23;20441;-71
2022/05/13 01:55:36;;;;;;;11.73;7.97;;;16.30;99.90;;;;;;6242538;23;20423;-71
2022/05/13 01:58:04;;;;;;;9.70;8.70;;;16.20;99.90;;;;;;6241460;22;20436;-71
2022/05/13 02:00:31;;;;;;;10.43;8.33;;;16.30;99.90;;;;;;6242778;23;20422;-71
2022/05/13 02:05:42;;;;;;;9.53;8.30;;;16.30;99.90;;;;;;6243081;23;20445;-71
2022/05/13 02:08:09;;;;;;;10.63;8.50;;;16.30;99.90;;;;;;6242517;22;20439;-71
2022/05/13 02:10:36;;;;;;;13.43;9.27;;;16.30;99.90;;;;;;6243318;23;20423;-71
2022/05/13 02:13:04;;;;;;;10.70;8.53;;;16.20;99.90;;;;;;6243185;23;20426;-71
2022/05/13 02:15:31;;;;;;;9.17;8.37;;;16.20;99.90;;;;;;6242661;23;20423;-71
2022/05/13 02:17:58;;;;;;;8.80;7.90;;;16.20;99.90;;;;;;6242983;22;20659;-71
2022/05/13 02:20:25;;;;;;;10.03;7.47;;;16.10;99.90;;;;;;6243120;23;20426;-71
2022/05/13 02:22:52;;;;;;;7.63;6.93;;;16.10;99.90;;;;;;6243272;23;20430;-71
2022/05/13 02:25:19;;;;;;;8.50;7.60;;;16.10;99.90;;;;;;6242778;23;20425;-71
2022/05/13 02:27:45;;;;;;;7.73;6.60;;;16.20;99.90;;;;;;6243561;22;20427;-71
2022/05/13 02:30:15;;;;;;;7.13;6.37;;;16.20;99.90;;;;;;6242744;23;20518;-71
2022/05/13 02:35:09;;;;;;;8.63;6.40;;;16.10;99.90;;;;;;6210643;23;20436;-71
2022/05/13 02:37:37;;;;;;;7.50;6.40;;;16.10;99.90;;;;;;6211324;23;20419;-71
2022/05/13 02:40:04;;;;;;;6.90;6.30;;;16.00;99.90;;;;;;6241567;23;20431;-71
2022/05/13 02:42:30;;;;;;;7.20;6.00;;;16.00;99.90;;;;;;6242580;23;20765;-71
2022/05/13 02:44:57;;;;;;;7.30;6.33;;;16.00;99.90;;;;;;6242738;23;20450;-72
2022/05/13 02:47:25;;;;;;;8.43;5.37;;;16.00;99.90;;;;;;6242710;23;20426;-71
2022/05/13 02:50:17;;;;;;;8.43;6.40;;;16.00;99.90;;;;;;6242509;23;20439;-72
2022/05/13 02:52:39;;;;;;;7.80;6.90;;;16.00;99.90;;;;;;6242189;23;20419;-72
2022/05/13 02:55:07;;;;;;;7.10;6.50;;;16.00;99.90;;;;;;6242948;23;20415;-72
2022/05/13 02:57:34;;;;;;;7.90;7.30;;;16.00;99.90;;;;;;6242803;23;20442;-71
2022/05/13 03:00:01;;;;;;;8.67;6.67;;;16.00;99.90;;;;;;6242022;23;20450;-71
2022/05/13 03:02:29;;;;;;;8.80;6.53;;;15.90;99.90;;;;;;6242925;23;20430;-72
2022/05/13 03:04:55;;;;;;;6.70;6.07;;;15.90;99.90;;;;;;6242660;23;20446;-71
2022/05/13 03:07:22;;;;;;;7.07;6.40;;;15.90;99.90;;;;;;6243174;23;20430;-72
2022/05/13 03:09:49;;;;;;;7.27;6.63;;;15.90;99.90;;;;;;6241688;23;20489;-71
2022/05/13 03:12:16;;;;;;;9.30;8.50;;;16.00;99.90;;;;;;6243000;23;20723;-71
2022/05/13 03:14:42;;;;;;;8.63;6.77;;;15.90;99.90;;;;;;6243104;23;20415;-71
2022/05/13 03:17:09;;;;;;;7.40;6.47;;;15.90;99.90;;;;;;6242769;23;20426;-72
2022/05/13 03:19:39;;;;;;;9.87;7.60;;;15.90;99.90;;;;;;6241826;23;20442;-71
2022/05/13 03:22:06;;;;;;;7.83;7.00;;;15.90;99.90;;;;;;6242727;23;20419;-71
2022/05/13 03:24:33;;;;;;;7.57;6.87;;;15.90;99.90;;;;;;6242634;23;20439;-72
2022/05/13 03:27:00;;;;;;;8.27;7.47;;;15.90;99.90;;;;;;6242661;23;20423;-71
2022/05/13 03:29:27;;;;;;;7.37;6.70;;;15.90;99.90;;;;;;6242135;23;20450;-72
2022/05/13 03:31:54;;;;;;;7.50;6.67;;;15.90;99.90;;;;;;6242488;23;20442;-71
2022/05/13 03:34:22;;;;;;;8.30;7.50;;;15.90;99.90;;;;;;6241753;23;20423;-71
2022/05/13 03:36:50;;;;;;;7.13;6.43;;;15.90;99.90;;;;;;6241417;23;20423;-71
2022/05/13 03:39:17;;;;;;;7.63;6.83;;;15.90;99.90;;;;;;6251466;23;20438;-71
2022/05/13 03:41:43;;;;;;;7.67;6.97;;;15.90;99.90;;;;;;6243127;23;20419;-70
2022/05/13 03:44:10;;;;;;;7.03;6.43;;;15.90;99.90;;;;;;6242931;23;20776;-71
2022/05/13 03:46:37;;;;;;;7.03;6.43;;;15.80;99.90;;;;;;6243592;23;20419;-71
2022/05/13 03:49:04;;;;;;;7.50;6.43;;;15.80;99.90;;;;;;6242381;23;20800;-71
2022/05/13 03:51:32;;;;;;;8.23;6.50;;;15.80;99.90;;;;;;6242953;23;20420;-72
2022/05/13 03:54:00;;;;;;;6.97;6.27;;;15.80;99.90;;;;;;6243104;23;20177;-70
2022/05/13 03:56:26;;;;;;;8.60;7.00;;;15.80;99.90;;;;;;6243355;23;20419;-69
2022/05/13 03:58:53;;;;;;;6.80;6.00;;;15.80;99.90;;;;;;6243464;23;20959;-71
2022/05/13 04:01:20;;;;;;;7.00;6.40;;;15.80;99.90;;;;;;6243590;23;20411;-70
2022/05/13 04:03:47;;;;;;;6.47;5.97;;;15.80;99.90;;;;;;6243242;23;20458;-71
2022/05/13 04:09:00;;;;;;;7.23;6.50;;;15.90;99.90;;;;;;6242444;23;20503;-71
2022/05/13 04:11:30;;;;;;;15.03;9.60;;;15.90;99.90;;;;;;6243294;23;20415;-70
2022/05/13 04:16:41;;;;;;;8.17;7.37;;;16.00;99.90;;;;;;6274707;22;20484;-71
2022/05/13 04:19:08;;;;;;;6.60;6.00;;;15.90;99.90;;;;;;6273334;22;20438;-71
2022/05/13 04:21:37;;;;;;;9.77;7.20;;;15.90;99.90;;;;;;6274484;22;20740;-71
2022/05/13 04:24:08;;;;;;;7.50;6.80;;;15.90;99.90;;;;;;6274122;22;20963;-71
2022/05/13 04:26:35;;;;;;;7.77;6.90;;;16.00;99.90;;;;;;6274551;22;20399;-72
2022/05/13 04:29:03;;;;;;;6.67;5.97;;;15.90;99.90;;;;;;6273619;22;20768;-71
2022/05/13 04:31:32;;;;;;;9.60;6.70;;;15.90;99.90;;;;;;6274819;22;20446;-73
2022/05/13 04:33:59;;;;;;;7.20;6.50;;;15.90;99.90;;;;;;6284709;22;20410;-72
2022/05/13 04:36:26;;;;;;;6.77;6.17;;;15.90;99.90;;;;;;6274234;22;20836;-72
2022/05/13 04:38:54;;;;;;;9.63;6.00;;;15.90;99.90;;;;;;6274206;22;20434;-71
2022/05/13 04:44:09;;;;;;;6.83;6.20;;;15.90;99.90;;;;;;6274800;22;20434;-71
2022/05/13 04:46:36;;;;;;;6.60;6.00;;;15.90;99.90;;;;;;6284463;22;20422;-71
2022/05/13 04:49:03;;;;;;;6.80;6.20;;;15.90;99.90;;;;;;6273681;22;20445;-71
2022/05/13 04:51:30;;;;;;;6.57;5.97;;;16.00;99.90;;;;;;6273779;22;20419;-71
2022/05/13 04:53:58;;;;;;;6.77;6.00;;;16.00;99.90;;;;;;6274911;22;20421;-71
2022/05/13 04:56:27;;;;;;;6.83;6.20;;;16.00;99.90;;;;;;6274359;22;20425;-71
2022/05/13 04:58:55;;;;;;;6.97;5.90;;;15.90;99.90;;;;;;6274021;22;20468;-71
2022/05/13 05:01:23;;;;;;;6.87;6.13;;;15.90;99.90;;;;;;6274026;22;20426;-72
2022/05/13 05:03:50;;;;;;;7.60;6.87;;;15.90;99.90;;;;;;6274793;22;20418;-73
2022/05/13 05:06:19;;;;;;;7.17;6.30;;;15.90;99.90;;;;;;6274680;22;20418;-71
2022/05/13 05:08:46;;;;;;;6.93;6.33;;;15.90;99.90;;;;;;6273440;22;20442;-71
2022/05/13 05:11:15;;;;;;;6.47;5.80;;;15.90;99.90;;;;;;6274657;22;20418;-72
2022/05/13 05:13:46;;;;;;;7.53;6.63;;;16.00;99.90;;;;;;6274231;22;20430;-71
2022/05/13 05:16:15;;;;;;;6.33;5.77;;;16.00;99.90;;;;;;6274239;22;20410;-71
2022/05/13 05:18:42;;;;;;;7.40;6.60;;;16.00;99.90;;;;;;6273484;22;20442;-71
2022/05/13 05:21:11;;;;;;;6.93;6.10;;;16.00;99.90;;;;;;6274366;22;20911;-71
2022/05/13 05:23:40;;;;;;;6.97;6.37;;;16.00;99.90;;;;;;6274415;22;20418;-73
2022/05/13 05:26:08;;;;;;;6.53;6.03;;;16.00;99.90;;;;;;6274294;22;20445;-71
2022/05/13 05:28:37;;;;;;;7.27;6.57;;;16.00;99.90;;;;;;6273389;22;20951;-71
2022/05/13 05:31:05;;;;;;;6.20;5.60;;;16.00;99.90;;;;;;6274411;22;20418;-71
2022/05/13 05:33:32;;;;;;;8.03;7.20;;;16.10;99.90;;;;;;6274783;22;20736;-71
2022/05/13 05:35:59;;;;;;;7.23;6.63;;;16.10;99.90;;;;;;6274248;22;20410;-71
2022/05/13 05:38:26;;;;;;;7.70;6.80;;;16.00;99.90;;;;;;6273623;22;20760;-70
2022/05/13 05:40:52;;;;;;;8.10;6.90;;;16.00;99.90;;;;;;6274077;22;20422;-72
2022/05/13 05:43:20;;;;;;;9.10;5.90;;;16.00;99.90;;;;;;6274561;22;20472;-71
2022/05/13 05:45:47;;;;;;;6.10;5.60;;;16.10;99.90;;;;;;6274163;22;20469;-70
2022/05/13 05:48:21;;;;;;;6.57;5.93;;;16.10;99.90;;;;;;6273087;22;20445;-71
2022/05/13 05:50:49;;;;;;;7.77;6.83;;;16.20;99.90;;;;;;6274089;22;20406;-70
2022/05/13 05:57:13;;;;;;;7.03;6.40;;;16.20;99.90;;;;;;6274453;22;20418;-71
2022/05/13 05:58:46;;;;;;;8.80;6.23;;;16.20;99.90;;;;;;6273442;22;20425;-71
2022/05/13 06:01:13;;;;;;;6.37;5.77;;;16.30;99.90;;;;;;6274349;22;20911;-71
2022/05/13 06:03:41;;;;;;;6.87;6.30;;;16.30;99.90;;;;;;6272983;22;20418;-72
2022/05/13 06:06:09;;;;;;;8.37;6.20;;;16.30;99.90;;;;;;6273971;22;20449;-72
2022/05/13 06:08:36;;;;;;;7.50;6.50;;;16.30;99.90;;;;;;6273278;22;20533;-71
2022/05/13 06:11:03;;;;;;;11.60;6.17;;;16.30;99.90;;;;;;6274947;22;20427;-72
2022/05/13 06:13:29;;;;;;;8.63;6.00;;;16.30;99.90;;;;;;6274014;22;20426;-72
2022/05/13 06:15:56;;;;;;;7.50;6.13;;;16.30;99.90;;;;;;6274065;22;20403;-71
2022/05/13 06:18:23;;;;;;;5.50;4.90;;;16.30;99.90;;;;;;6268202;22;20966;-72
2022/05/13 06:20:51;;;;;;;7.93;5.63;;;16.20;99.90;;;;;;6271575;22;20475;-70
2022/05/13 06:23:18;;;;;;;6.97;5.27;;;16.10;99.90;;;;;;6273227;22;20978;-70
2022/05/13 06:25:45;;;;;;;5.97;5.37;;;16.10;99.90;;;;;;6272058;22;20525;-72
2022/05/13 06:28:13;;;;;;;7.17;5.40;;;16.10;99.90;;;;;;6271298;22;21008;-72
2022/05/13 06:30:40;;;;;;;6.67;5.10;;;16.10;99.90;;;;;;6272779;22;20426;-72
2022/05/13 06:33:08;;;;;;;6.60;5.30;;;16.30;99.90;;;;;;6272481;22;20919;-70
2022/05/13 06:35:36;;;;;;;9.40;5.13;;;16.40;99.90;;;;;;6272849;22;20923;-71
2022/05/13 06:38:09;;;;;;;6.50;5.37;;;16.40;99.90;;;;;;6271301;22;20446;-71
2022/05/13 06:40:36;;;;;;;6.67;5.87;;;16.50;99.90;;;;;;6272577;22;20778;-72
2022/05/13 06:43:04;;;;;;;7.20;6.00;;;16.60;99.90;;;;;;6282571;22;20815;-71
2022/05/13 06:45:31;;;;;;;7.63;5.40;;;16.70;99.90;;;;;;6272679;22;20438;-71
2022/05/13 06:47:58;;;;;;;7.93;5.40;;;16.70;99.90;;;;;;6272189;22;20419;-71
2022/05/13 06:50:25;;;;;;;5.47;4.77;;;16.80;99.90;;;;;;6273125;22;20491;-71
2022/05/13 06:52:53;;;;;;;7.77;4.23;;;16.70;99.90;;;;;;6272419;22;20418;-71
2022/05/13 06:55:21;;;;;;;6.37;4.80;;;16.70;99.90;;;;;;6272753;22;20420;-71
2022/05/13 06:57:48;;;;;;;4.20;3.90;;;16.80;99.90;;;;;;6272327;22;21089;-71
2022/05/13 07:00:16;;;;;;;8.27;4.50;;;16.80;99.90;;;;;;6271246;22;20497;-71
2022/05/13 07:02:43;;;;;;;6.13;4.13;;;16.80;99.90;;;;;;6269595;22;20899;-70
2022/05/13 07:05:13;;;;;;;8.23;4.27;;;16.70;99.90;;;;;;6272082;22;20438;-72
2022/05/13 07:07:41;;;;;;;4.33;3.90;;;16.70;99.90;;;;;;6272975;22;20422;-71
2022/05/13 07:10:10;;;;;;;6.60;3.90;;;16.70;99.90;;;;;;6271959;22;20510;-71
2022/05/13 07:12:38;;;;;;;5.50;4.00;;;16.70;99.90;;;;;;6272060;22;20422;-70
2022/05/13 07:15:07;;;;;;;9.27;4.00;;;16.70;99.90;;;;;;6273476;22;20418;-71
2022/05/13 07:17:34;;;;;;;5.00;4.50;;;16.70;99.90;;;;;;6274753;22;20425;-71
2022/05/13 07:20:00;;;;;;;5.70;4.60;;;16.60;99.90;;;;;;6275389;22;20500;-72
2022/05/13 07:22:27;;;;;;;4.40;3.83;;;16.50;99.90;;;;;;6275306;22;20421;-71
2022/05/13 07:24:54;;;;;;;7.13;4.37;;;16.50;99.90;;;;;;6275327;22;20460;-70
2022/05/13 07:27:21;;;;;;;4.63;4.23;;;16.40;99.90;;;;;;6272939;22;20418;-71
2022/05/13 07:29:49;;;;;;;4.63;4.00;;;16.40;99.90;;;;;;6273779;22;20445;-72
2022/05/13 07:32:15;;;;;;;5.23;4.20;;;16.50;99.90;;;;;;6274080;22;20441;-71
2022/05/13 07:34:42;;;;;;;6.80;4.00;;;16.50;99.90;;;;;;6274960;22;20417;-72
2022/05/13 07:37:09;;;;;;;5.20;4.33;;;16.50;99.90;;;;;;6274397;22;20739;-70
2022/05/13 07:42:25;;;;;;;4.37;3.97;;;16.50;99.90;;;;;;6160125;22;20406;-71
2022/05/13 07:44:54;;;;;;;9.20;5.00;;;16.50;99.90;;;;;;6273837;22;20430;-71
2022/05/13 07:47:20;;;;;;;12.00;4.63;;;16.60;99.90;;;;;;6274622;22;20424;-71
2022/05/13 07:49:47;;;;;;;4.63;4.23;;;16.50;99.90;;;;;;6274049;22;20438;-71
2022/05/13 07:52:14;;;;;;;4.20;3.30;;;16.50;99.90;;;;;;6271381;22;20425;-70
2022/05/13 07:54:41;;;;;;;8.73;4.20;;;16.50;99.90;;;;;;6274039;22;20468;-71
2022/05/13 07:57:08;;;;;;;6.07;4.30;;;16.50;99.90;;;;;;6274273;22;20422;-70
2022/05/13 08:00:24;;;;;;;6.73;4.40;;;16.50;99.90;;;;;;6273031;22;20445;-72
2022/05/13 08:02:23;;;;;;;5.63;4.00;;;16.50;99.90;;;;;;6273081;22;20490;-71
2022/05/13 08:04:50;;;;;;;6.23;3.90;;;16.60;99.90;;;;;;6274368;22;20418;-71
2022/05/13 08:07:17;;;;;;;5.23;4.20;;;16.60;99.90;;;;;;6274254;22;20418;-70
2022/05/13 08:09:44;;;;;;;5.43;3.80;;;16.70;99.90;;;;;;6274257;22;20438;-71
2022/05/13 08:12:11;;;;;;;6.03;3.50;;;16.80;99.90;;;;;;6274946;22;20506;-70
2022/05/13 08:14:38;;;;;;;7.80;4.30;;;17.00;99.90;;;;;;6273928;22;20430;-70
2022/05/13 08:17:06;;;;;;;7.33;3.70;;;17.20;99.90;;;;;;6274569;22;20425;-70
2022/05/13 08:19:34;;;;;;;6.80;3.50;;;17.30;99.90;;;;;;6273934;22;20464;-70
2022/05/13 08:22:01;;;;;;;5.70;3.90;;;17.30;99.90;;;;;;6274279;22;20914;-70
2022/05/13 08:24:27;;;;;;;3.90;3.27;;;17.50;99.90;;;;;;6274498;22;20440;-71
2022/05/13 08:26:54;;;;;;;9.73;3.83;;;17.60;99.90;;;;;;6272313;22;20442;-70
2022/05/13 08:29:21;;;;;;;5.37;3.37;;;17.70;99.90;;;;;;6273497;22;20438;-70
2022/05/13 08:31:47;;;;;;;6.20;3.70;;;17.70;99.90;;;;;;6273623;22;20911;-71
2022/05/13 08:34:16;;;;;;;4.30;3.30;;;17.50;99.90;;;;;;6274203;22;20457;-71
2022/05/13 08:36:44;;;;;;;5.37;4.07;;;17.50;99.90;;;;;;6273491;22;20414;-70
2022/05/13 08:39:11;;;;;;;4.43;3.40;;;17.60;99.90;;;;;;6273247;22;20469;-70
2022/05/13 08:41:59;;;;;;;5.13;3.20;;;17.70;99.90;;;;;;6273208;22;20422;-70
2022/05/13 08:44:26;;;;;;;5.00;3.30;;;17.80;99.90;;;;;;6272944;22;20421;-71
2022/05/13 08:46:57;;;;;;;5.83;3.27;;;18.00;99.90;;;;;;6273352;22;20438;-70
2022/05/13 08:49:34;;;;;;;4.50;2.97;;;18.10;99.90;;;;;;6272814;22;20438;-70
2022/05/13 08:54:54;;;;;;;4.90;2.93;;;18.30;99.90;;;;;;6271690;22;20407;-71
2022/05/13 08:57:22;;;;;;;5.53;2.87;;;18.20;99.90;;;;;;6273163;22;20477;-70
2022/05/13 08:59:55;;;;;;;4.00;3.00;;;18.30;99.90;;;;;;6272135;22;20434;-70
2022/05/13 09:02:24;;;;;;;4.30;2.53;;;18.40;99.90;;;;;;6273467;22;20398;-70
2022/05/13 09:05:00;;;;;;;5.77;2.83;;;18.50;99.90;;;;;;6272644;22;20425;-71
2022/05/13 09:07:29;;;;;;;6.57;2.80;;;19.00;99.90;;;;;;6273121;22;20405;-71
2022/05/13 09:10:00;;;;;;;7.87;3.10;;;19.70;99.90;;;;;;6272846;22;20440;-71
2022/05/13 09:12:33;;;;;;;6.83;3.50;;;20.40;99.90;;;;;;6273544;22;20409;-72
2022/05/13 09:15:06;;;;;;;5.00;2.80;;;21.00;99.90;;;;;;6272233;22;20430;-71
2022/05/13 09:17:35;;;;;;;7.53;3.27;;;21.40;99.90;;;;;;6272390;22;20402;-72
2022/05/13 09:20:06;;;;;;;5.20;2.80;;;21.90;99.90;;;;;;6271731;22;20446;-71
2022/05/13 09:22:36;;;;;;;7.10;2.93;;;22.20;99.90;;;;;;6272195;22;20398;-71
2022/05/13 09:25:04;;;;;;;6.67;2.67;;;21.90;99.90;;;;;;6273107;22;20403;-71
2022/05/13 09:30:04;;;;;;;6.63;3.10;;;20.80;99.90;;;;;;6296021;22;20473;-94
2022/05/13 09:32:32;;;;;;;4.50;3.40;;;20.40;99.90;;;;;;6315573;22;20417;-94
2022/05/13 09:35:10;;;;;;;3.80;2.40;;;20.20;99.90;;;;;;6315357;22;20474;-95
2022/05/13 09:37:41;;;;;;;4.67;2.83;;;19.70;99.90;;;;;;6305002;22;20403;-95
2022/05/13 09:43:10;;;;;;;9.77;3.50;;;19.10;99.90;;;;;;6270138;22;20565;-73
2022/05/13 09:45:37;;;;;;;8.00;3.20;;;18.90;99.90;;;;;;6274061;22;20492;-74
2022/05/13 09:48:16;;;;;;;5.37;3.13;;;18.70;99.90;;;;;;6272708;22;20453;-74
2022/05/13 09:50:45;;;;;;;5.33;3.17;;;18.60;99.90;;;;;;6274440;22;20403;-73
2022/05/13 09:53:30;;;;;;;7.87;3.30;;;18.50;99.90;;;;;;6273906;22;20433;-74
2022/05/13 09:56:01;;;;;;;3.63;2.80;;;18.40;99.90;;;;;;6271981;22;20448;-74
2022/05/13 09:58:32;;;;;;;8.23;3.47;;;18.40;99.90;;;;;;6272000;22;20468;-74
2022/05/13 10:01:03;;;;;;;10.53;3.07;;;18.30;99.90;;;;;;6272799;22;20406;-74
2022/05/13 10:03:36;;;;;;;6.50;2.90;;;18.20;99.90;;;;;;6273149;22;20411;-74
2022/05/13 10:06:19;;;;;;;4.93;2.47;;;18.20;99.90;;;;;;6272362;22;20427;-74
2022/05/13 10:08:54;;;;;;;5.20;2.77;;;18.10;99.90;;;;;;6270918;22;20441;-74
2022/05/13 10:14:26;;;;;;;6.10;3.00;;;18.00;99.90;;;;;;6271803;22;20465;-73
2022/05/13 10:16:56;;;;;;;4.57;2.90;;;18.00;99.90;;;;;;6271598;22;20906;-73
2022/05/13 10:19:29;;;;;;;3.60;2.33;;;18.00;99.90;;;;;;6271139;22;20500;-73
2022/05/13 10:22:04;;;;;;;4.23;2.50;;;18.00;99.90;;;;;;6272318;22;20402;-73
2022/05/13 10:24:39;;;;;;;6.90;2.80;;;18.00;99.90;;;;;;6271630;22;20489;-73
2022/05/13 10:27:12;;;;;;;6.30;2.97;;;18.00;99.90;;;;;;6272129;22;20790;-73
2022/05/13 10:29:45;;;;;;;4.30;2.80;;;18.10;99.90;;;;;;6271575;22;20656;-73
2022/05/13 10:32:17;;;;;;;3.50;2.57;;;18.10;99.90;;;;;;6271364;22;20789;-73
2022/05/13 10:34:50;;;;;;;3.90;2.40;;;18.30;99.90;;;;;;6272188;22;20595;-73
2022/05/13 10:37:22;;;;;;;7.40;2.97;;;18.50;99.90;;;;;;6272110;22;20452;-73
2022/05/13 10:39:54;;;;;;;5.93;2.80;;;18.70;99.90;;;;;;6271498;22;20443;-74
2022/05/13 10:42:24;;;;;;;4.73;2.40;;;19.00;99.90;;;;;;6272573;22;20426;-74
2022/05/13 10:44:56;;;;;;;3.70;2.60;;;19.10;99.90;;;;;;6271151;22;20405;-74
2022/05/13 10:47:29;;;;;;;3.70;2.20;;;19.30;99.90;;;;;;6271855;22;20448;-73
2022/05/13 10:49:56;;;;;;;5.23;2.80;;;19.40;99.90;;;;;;6271569;22;20438;-74
2022/05/13 10:52:37;;;;;;;5.80;2.47;;;19.30;99.90;;;;;;6274064;22;20895;-74
2022/05/13 10:55:14;;;;;;;4.93;3.03;;;19.40;99.90;;;;;;6274866;22;20704;-74
2022/05/13 10:57:46;;;;;;;3.60;2.67;;;19.50;99.90;;;;;;6273575;22;20402;-74
2022/05/13 11:00:18;;;;;;;6.43;2.60;;;19.60;99.90;;;;;;6273078;22;20448;-74
2022/05/13 11:03:22;;;;;;;4.10;2.60;;;19.60;99.90;;;;;;6274303;22;20403;-74
2022/05/13 11:06:02;;;;;;;6.90;3.03;;;19.60;99.90;;;;;;6274465;22;20426;-74
2022/05/13 11:08:41;;;;;;;4.30;2.90;;;19.50;99.90;;;;;;6272064;22;20445;-74
2022/05/13 11:11:24;;;;;;;2.80;2.60;;;19.60;99.90;;;;;;6273912;22;20409;-74
2022/05/13 11:14:02;;;;;;;6.00;3.10;;;19.60;99.90;;;;;;6274183;22;20399;-74
2022/05/13 11:16:38;;;;;;;6.90;2.97;;;19.50;99.90;;;;;;6273773;22;20405;-74
2022/05/13 11:19:13;;;;;;;4.23;2.77;;;19.60;99.90;;;;;;6273401;22;20437;-74
2022/05/13 11:21:56;;;;;;;6.40;3.20;;;19.70;99.90;;;;;;6272792;22;20656;-74
2022/05/13 11:27:53;;;;;;;3.93;2.60;;;20.30;99.90;;;;;;6150047;23;20489;-75
2022/05/13 11:30:27;;;;;;;5.80;2.97;;;21.30;99.90;;;;;;6253473;22;20698;-74
2022/05/13 11:32:59;;;;;;;5.63;3.20;;;22.20;99.90;;;;;;6273418;22;20959;-74
2022/05/13 11:35:40;;;;;;;6.13;3.27;;;22.50;99.90;;;;;;6273497;22;20405;-74
2022/05/13 11:38:15;;;;;;;4.27;3.63;;;22.30;99.90;;;;;;6273242;22;20529;-74
2022/05/13 11:40:50;;;;;;;5.80;3.00;;;22.00;99.90;;;;;;6273680;22;20879;-75
2022/05/13 11:43:30;;;;;;;3.43;2.63;;;21.80;99.90;;;;;;6273609;22;20436;-74
2022/05/13 11:46:18;;;;;;;5.67;3.47;;;22.10;99.90;;;;;;6273403;22;20430;-75
2022/05/13 11:48:47;;;;;;;7.67;3.40;;;22.40;99.90;;;;;;6273794;22;20448;-74
2022/05/13 11:51:17;;;;;;;4.50;3.47;;;22.50;99.90;;;;;;6273969;22;20418;-75
2022/05/13 11:53:51;;;;;;;8.20;4.53;;;22.60;99.90;;;;;;6273775;22;20728;-75
2022/05/13 11:56:29;;;;;;;4.63;2.70;;;22.80;99.90;;;;;;6274114;22;20473;-78
2022/05/13 11:59:01;;;;;;;4.03;3.10;;;22.80;99.90;;;;;;6276984;22;20483;-80
2022/05/13 12:01:54;;;;;;;4.30;3.07;;;22.80;99.90;;;;;;6277542;22;20732;-80
2022/05/13 12:04:30;;;;;;;6.53;3.30;;;22.50;99.90;;;;;;6276053;22;20419;-79
2022/05/13 12:06:59;;;;;;;3.50;2.87;;;22.40;99.90;;;;;;6274754;22;20433;-79
2022/05/13 12:09:31;;;;;;;4.23;3.00;;;22.40;99.90;;;;;;6273617;22;20438;-78
2022/05/13 12:12:07;;;;;;;6.63;3.10;;;22.40;99.90;;;;;;6276929;22;20409;-78
2022/05/13 12:14:44;;;;;;;5.30;2.73;;;22.70;99.90;;;;;;6275071;22;20409;-78
2022/05/13 12:17:18;;;;;;;5.03;3.00;;;23.40;99.90;;;;;;6273673;22;20879;-75
2022/05/13 12:19:55;;;;;;;4.73;3.13;;;23.90;99.90;;;;;;6274954;22;20426;-78
2022/05/13 12:22:37;;;;;;;5.13;3.27;;;24.30;99.50;;;;;;6274484;22;20417;-78
2022/05/13 12:25:08;;;;;;;4.60;3.20;;;24.60;98.90;;;;;;6275488;22;20481;-77
2022/05/13 12:27:37;;;;;;;5.77;2.90;;;24.90;98.80;;;;;;6276066;22;20427;-78
2022/05/13 12:30:29;;;;;;;4.50;3.37;;;25.10;98.20;;;;;;6272451;22;20445;-77
2022/05/13 12:32:58;;;;;;;4.47;3.30;;;25.10;97.50;;;;;;6274650;22;20449;-78
2022/05/13 12:38:23;;;;;;;3.10;2.70;;;25.30;97.50;;;;;;6285345;22;20422;-76
2022/05/13 12:40:59;;;;;;;3.50;3.20;;;25.60;98.00;;;;;;6276854;22;20418;-76
2022/05/13 12:43:46;;;;;;;4.37;2.90;;;25.60;96.40;;;;;;6290216;22;20452;-78
2022/05/13 12:46:18;;;;;;;4.00;2.60;;;25.40;95.90;;;;;;6272603;22;20406;-76
2022/05/13 12:49:04;;;;;;;6.73;3.20;;;25.20;96.50;;;;;;6273572;22;20445;-75
2022/05/13 12:51:45;;;;;;;5.23;3.17;;;24.90;97.60;;;;;;6272842;22;20431;-75
2022/05/13 12:54:16;;;;;;;3.93;2.80;;;24.30;97.00;;;;;;6274445;22;20410;-79
2022/05/13 12:56:46;;;;;;;4.20;3.30;;;24.00;98.80;;;;;;6275248;22;20437;-76
2022/05/13 12:59:15;;;;;;;5.57;3.20;;;23.90;97.20;;;;;;6273644;22;20442;-78
2022/05/13 13:01:46;;;;;;;3.00;2.57;;;23.90;98.40;;;;;;6277991;22;20499;-77
2022/05/13 13:04:15;;;;;;;2.93;2.60;;;24.00;98.00;;;;;;6275286;22;20409;-75
2022/05/13 13:06:45;;;;;;;7.40;2.73;;;24.10;96.10;;;;;;6272714;22;20449;-75
2022/05/13 13:09:19;;;;;;;5.30;3.10;;;24.20;98.00;;;;;;6271891;22;20533;-74
2022/05/13 13:11:54;;;;;;;3.93;3.00;;;24.50;98.30;;;;;;6272246;22;20403;-75
2022/05/13 13:14:33;;;;;;;4.00;2.30;;;24.70;96.80;;;;;;6272255;22;20413;-75
2022/05/13 13:17:10;;;;;;;3.00;2.70;;;24.60;96.90;;;;;;6272793;22;20405;-75
2022/05/13 13:19:38;;;;;;;3.20;2.77;;;24.60;95.50;;;;;;6273049;22;20443;-79
2022/05/13 13:22:09;;;;;;;5.20;3.00;;;24.70;96.30;;;;;;6272956;22;20445;-78
2022/05/13 13:24:38;;;;;;;6.33;2.73;;;25.00;96.90;;;;;;6273691;22;20402;-79
2022/05/13 13:27:08;;;;;;;3.70;2.40;;;25.10;94.00;;;;;;6275116;22;20442;-82
2022/05/13 13:29:37;;;;;;;4.27;2.77;;;25.00;93.50;;;;;;6276650;22;20438;-79
2022/05/13 13:32:08;;;;;;;4.20;2.30;;;24.90;93.40;;;;;;6288210;22;20517;-78
2022/05/13 13:34:36;;;;;;;2.80;2.47;;;25.00;93.40;;;;;;6275491;22;20402;-78
2022/05/13 13:37:06;;;;;;;5.87;2.63;;;24.80;92.80;;;;;;6273538;22;20414;-78